createdAt,value
2019-02-07T00:00:02.243Z,58.73
2019-02-07T00:02:30.390Z,60.88
2019-02-07T00:04:58.571Z,58.75
2019-02-07T00:07:26.744Z,63.05
2019-02-07T00:09:56.124Z,62.27
2019-02-07T00:12:24.591Z,60.20
2019-02-07T00:14:52.791Z,61.50
2019-02-07T00:17:22.550Z,61.30
2019-02-07T00:19:50.760Z,62.23
2019-02-07T00:22:19.191Z,63.55
2019-02-07T00:24:47.334Z,66.97
2019-02-07T00:27:15.823Z,63.65
2019-02-07T00:29:43.979Z,68.90
2019-02-07T00:32:12.151Z,73.90
2019-02-07T00:34:44.974Z,56.83
2019-02-07T00:37:13.195Z,65.95
2019-02-07T00:39:41.782Z,66.05
2019-02-07T00:42:10.999Z,62.85
2019-02-07T00:44:39.158Z,69.62
2019-02-07T00:47:07.737Z,67.32
2019-02-07T00:49:36.222Z,68.77
2019-02-07T00:52:04.413Z,70.03
2019-02-07T00:54:33.877Z,64.65
2019-02-07T00:57:02.073Z,63.73
2019-02-07T00:59:30.648Z,61.30
2019-02-07T01:01:59.850Z,65.97
2019-02-07T01:04:29.054Z,68.85
2019-02-07T01:07:04.191Z,65.15
2019-02-07T01:09:32.350Z,64.75
2019-02-07T01:12:00.629Z,59.63
2019-02-07T01:14:28.827Z,68.17
2019-02-07T01:16:57.297Z,63.20
2019-02-07T01:19:25.680Z,59.00
2019-02-07T01:21:53.847Z,62.73
2019-02-07T01:24:23.066Z,59.45
2019-02-07T01:26:51.487Z,63.40
2019-02-07T01:29:20.056Z,58.48
2019-02-07T01:31:48.666Z,62.78
2019-02-07T01:34:16.903Z,60.85
2019-02-07T01:36:45.316Z,53.00
2019-02-07T01:39:13.505Z,55.37
2019-02-07T01:41:41.703Z,61.20
2019-02-07T01:44:09.858Z,64.17
2019-02-07T01:46:38.031Z,55.15
2019-02-07T01:49:06.210Z,59.70
2019-02-07T01:51:36.420Z,59.88
2019-02-07T01:54:04.626Z,62.13
2019-02-07T01:56:33.058Z,60.75
2019-02-07T01:59:01.540Z,63.95
2019-02-07T02:01:29.740Z,73.00
2019-02-07T02:03:57.906Z,57.40
2019-02-07T02:06:27.392Z,60.85
2019-02-07T02:08:57.526Z,65.47
2019-02-07T02:11:25.750Z,61.92
2019-02-07T02:13:53.871Z,64.85
2019-02-07T02:16:24.093Z,64.12
2019-02-07T02:18:50.529Z,69.05
2019-02-07T02:21:18.720Z,57.75
2019-02-07T02:23:46.895Z,65.60
2019-02-07T02:26:15.418Z,68.02
2019-02-07T02:28:43.642Z,62.10
2019-02-07T02:31:12.004Z,59.18
2019-02-07T02:33:40.233Z,64.70
2019-02-07T02:36:08.646Z,63.20
2019-02-07T02:38:37.246Z,61.13
2019-02-07T02:41:05.432Z,65.20
2019-02-07T02:43:33.602Z,55.92
2019-02-07T02:46:02.041Z,62.03
2019-02-07T02:48:30.243Z,64.97
2019-02-07T02:50:59.030Z,58.25
2019-02-07T02:53:37.033Z,61.50
2019-02-07T02:56:05.952Z,62.78
2019-02-07T02:58:34.146Z,62.03
2019-02-07T03:01:21.867Z,63.52
2019-02-07T03:04:18.204Z,57.17
2019-02-07T03:07:05.577Z,56.25
2019-02-07T03:09:55.509Z,62.23
2019-02-07T03:12:51.129Z,64.72
2019-02-07T03:15:49.232Z,59.98
2019-02-07T03:18:24.834Z,60.17
2019-02-07T03:21:18.581Z,60.33
2019-02-07T03:24:15.776Z,59.33
2019-02-07T03:27:16.198Z,60.45
2019-02-07T03:30:06.920Z,56.13
2019-02-07T03:32:58.364Z,55.60
2019-02-07T03:35:48.600Z,62.95
2019-02-07T03:38:34.762Z,62.87
2019-02-07T03:41:27.859Z,62.45
2019-02-07T03:44:03.439Z,65.55
2019-02-07T03:46:51.517Z,62.75
2019-02-07T03:49:26.175Z,58.68
2019-02-07T03:52:09.911Z,67.40
2019-02-07T03:54:56.481Z,63.40
2019-02-07T03:57:50.665Z,61.25
2019-02-07T04:00:36.747Z,57.98
2019-02-07T04:03:24.418Z,62.98
2019-02-07T04:06:31.246Z,57.40
2019-02-07T04:09:18.737Z,51.85
2019-02-07T04:12:13.223Z,61.30
2019-02-07T04:15:08.742Z,57.25
2019-02-07T04:17:45.705Z,60.10
2019-02-07T04:20:33.398Z,67.20
2019-02-07T04:23:06.947Z,56.25
2019-02-07T04:25:50.808Z,66.02
2019-02-07T04:28:27.898Z,63.35
2019-02-07T04:31:24.177Z,62.95
2019-02-07T04:34:10.060Z,66.33
2019-02-07T04:36:46.955Z,67.97
2019-02-07T04:39:33.267Z,61.98
2019-02-07T04:42:15.255Z,73.10
2019-02-07T04:45:10.373Z,73.07
2019-02-07T04:48:04.799Z,65.65
2019-02-07T04:51:02.251Z,70.78
2019-02-07T04:53:56.019Z,72.25
2019-02-07T04:56:43.450Z,70.75
2019-02-07T04:59:24.507Z,77.97
2019-02-07T05:05:02.680Z,67.58
2019-02-07T05:08:08.448Z,79.25
2019-02-07T05:11:01.593Z,75.92
2019-02-07T05:14:01.448Z,72.35
2019-02-07T05:16:55.270Z,70.95
2019-02-07T05:19:41.401Z,71.77
2019-02-07T05:22:28.791Z,79.87
2019-02-07T05:25:23.129Z,76.72
2019-02-07T05:28:02.564Z,76.42
2019-02-07T05:30:51.527Z,78.83
2019-02-07T05:33:41.387Z,69.35
2019-02-07T05:36:31.301Z,67.44
2019-02-07T05:39:23.129Z,67.53
2019-02-07T05:42:26.439Z,60.00
2019-02-07T05:45:12.800Z,63.78
2019-02-07T05:47:55.839Z,63.05
2019-02-07T05:50:35.374Z,62.23
2019-02-07T05:53:21.437Z,69.58
2019-02-07T05:56:20.741Z,64.73
2019-02-07T05:59:07.587Z,70.45
2019-02-07T06:01:46.197Z,63.15
2019-02-07T06:04:39.390Z,64.65
2019-02-07T06:07:25.262Z,65.42
2019-02-07T06:10:15.502Z,64.37
2019-02-07T06:13:05.731Z,64.07
2019-02-07T06:15:57.030Z,63.60
2019-02-07T06:18:35.678Z,70.95
2019-02-07T06:21:23.127Z,66.67
2019-02-07T06:24:09.997Z,68.57
2019-02-07T06:26:46.792Z,62.85
2019-02-07T06:29:27.858Z,65.52
2019-02-07T06:32:13.613Z,69.58
2019-02-07T06:34:59.737Z,73.00
2019-02-07T06:37:52.106Z,69.53
2019-02-07T06:40:39.483Z,73.15
2019-02-07T06:43:19.143Z,70.67
2019-02-07T06:46:09.538Z,67.75
2019-02-07T06:48:55.473Z,75.87
2019-02-07T06:51:46.320Z,67.70
2019-02-07T06:54:27.066Z,66.40
2019-02-07T06:59:52.284Z,68.57
2019-02-07T07:02:48.839Z,80.25
2019-02-07T07:05:34.854Z,71.20
2019-02-07T07:08:25.063Z,74.53
2019-02-07T07:11:14.001Z,71.30
2019-02-07T07:14:10.077Z,76.45
2019-02-07T07:17:24.995Z,69.30
2019-02-07T07:20:19.195Z,73.70
2019-02-07T07:23:09.332Z,68.80
2019-02-07T07:26:06.407Z,73.62
2019-02-07T07:29:05.585Z,67.17
2019-02-07T07:32:03.590Z,73.35
2019-02-07T07:35:00.548Z,80.77
2019-02-07T07:37:40.743Z,77.12
2019-02-07T07:40:24.937Z,70.70
2019-02-07T07:43:27.472Z,73.52
2019-02-07T07:46:11.065Z,73.65
2019-02-07T07:48:48.841Z,72.65
2019-02-07T07:51:42.080Z,72.95
2019-02-07T07:54:33.115Z,76.47
2019-02-07T07:57:29.748Z,74.80
2019-02-07T08:00:23.262Z,75.78
2019-02-07T08:03:09.316Z,70.28
2019-02-07T08:05:59.528Z,74.42
2019-02-07T08:08:46.283Z,78.42
2019-02-07T08:11:26.720Z,75.55
2019-02-07T08:14:19.112Z,74.22
2019-02-07T08:17:05.657Z,67.85
2019-02-07T08:19:45.332Z,74.90
2019-02-07T08:22:31.464Z,70.05
2019-02-07T08:25:24.678Z,73.10
2019-02-07T08:28:10.675Z,69.27
2019-02-07T08:31:10.173Z,69.82
2019-02-07T08:34:01.738Z,69.80
2019-02-07T08:36:45.272Z,80.25
2019-02-07T08:39:27.798Z,67.27
2019-02-07T08:42:13.778Z,69.75
2019-02-07T08:45:02.333Z,68.75
2019-02-07T08:47:59.488Z,66.17
2019-02-07T08:50:46.221Z,66.37
2019-02-07T08:53:36.652Z,64.25
2019-02-07T08:56:22.463Z,63.92
2019-02-07T08:59:09.351Z,65.10
2019-02-07T09:02:00.704Z,61.40
2019-02-07T09:04:43.222Z,67.45
2019-02-07T09:07:32.112Z,62.83
2019-02-07T09:10:09.357Z,59.13
2019-02-07T09:12:50.653Z,64.20
2019-02-07T09:15:26.654Z,62.85
2019-02-07T09:18:27.333Z,57.03
2019-02-07T09:21:14.110Z,61.10
2019-02-07T09:23:51.531Z,67.05
2019-02-07T09:26:41.895Z,59.77
2019-02-07T09:29:27.915Z,58.13
2019-02-07T09:32:13.500Z,65.37
2019-02-07T09:35:03.649Z,59.30
2019-02-07T09:37:46.811Z,57.00
2019-02-07T09:40:53.185Z,60.17
2019-02-07T09:43:46.612Z,58.63
2019-02-07T09:46:34.186Z,58.78
2019-02-07T09:49:36.849Z,62.60
2019-02-07T09:52:42.395Z,56.55
2019-02-07T09:55:28.695Z,63.52
2019-02-07T09:58:15.405Z,57.80
2019-02-07T10:00:57.402Z,60.85
2019-02-07T10:03:35.218Z,57.48
2019-02-07T10:06:21.313Z,61.13
2019-02-07T10:08:56.641Z,68.22
2019-02-07T10:11:49.603Z,62.85
2019-02-07T10:14:27.697Z,56.75
2019-02-07T10:17:09.491Z,62.75
2019-02-07T10:19:50.597Z,58.42
2019-02-07T10:22:46.893Z,60.08
2019-02-07T10:25:28.693Z,54.95
2019-02-07T10:28:20.602Z,55.58
2019-02-07T10:31:06.645Z,63.58
2019-02-07T10:33:49.868Z,61.65
2019-02-07T10:36:40.086Z,64.53
2019-02-07T10:39:31.632Z,54.93
2019-02-07T10:42:17.922Z,60.48
2019-02-07T10:45:07.480Z,63.58
2019-02-07T10:47:54.893Z,61.20
2019-02-07T10:50:40.971Z,65.45
2019-02-07T10:53:18.427Z,63.45
2019-02-07T10:56:05.922Z,60.60
2019-02-07T10:58:53.720Z,64.15
2019-02-07T11:01:42.868Z,58.83
2019-02-07T11:04:25.784Z,63.65
2019-02-07T11:07:11.599Z,57.75
2019-02-07T11:09:54.072Z,55.88
2019-02-07T11:12:41.082Z,53.35
2019-02-07T11:15:22.713Z,52.93
2019-02-07T11:18:01.603Z,53.23
2019-02-07T11:20:58.079Z,60.30
2019-02-07T11:23:40.433Z,61.53
2019-02-07T11:26:31.006Z,54.90
2019-02-07T11:29:18.601Z,58.85
2019-02-07T11:32:12.778Z,69.25
2019-02-07T11:34:59.460Z,56.83
2019-02-07T11:37:47.157Z,60.60
2019-02-07T11:40:26.522Z,58.55
2019-02-07T11:43:14.495Z,54.42
2019-02-07T11:46:07.049Z,63.78
2019-02-07T11:48:47.584Z,55.95
2019-02-07T11:51:31.510Z,57.27
2019-02-07T11:54:14.626Z,58.50
2019-02-07T11:57:01.843Z,61.35
2019-02-07T11:59:39.034Z,62.05
2019-02-07T12:02:27.079Z,56.88
2019-02-07T12:05:12.065Z,62.90
2019-02-07T12:08:02.521Z,63.17
2019-02-07T12:10:55.937Z,60.35
2019-02-07T12:13:34.071Z,60.95
2019-02-07T12:16:24.546Z,58.33
2019-02-07T12:19:17.769Z,67.17
2019-02-07T12:21:54.627Z,61.30
2019-02-07T12:24:42.025Z,65.67
2019-02-07T12:27:32.665Z,61.50
2019-02-07T12:30:28.281Z,59.47
2019-02-07T12:33:12.546Z,62.90
2019-02-07T12:35:51.097Z,62.62
2019-02-07T12:38:28.262Z,59.45
2019-02-07T12:41:08.489Z,69.87
2019-02-07T12:43:59.400Z,60.70
2019-02-07T12:46:50.412Z,60.83
2019-02-07T12:49:57.797Z,73.72
2019-02-07T12:52:44.507Z,59.40
2019-02-07T12:55:30.537Z,66.12
2019-02-07T12:58:17.964Z,75.12
2019-02-07T13:01:09.379Z,64.45
2019-02-07T13:03:58.126Z,70.72
2019-02-07T13:06:39.746Z,67.65
2019-02-07T13:09:19.925Z,65.85
2019-02-07T13:12:05.904Z,66.30
2019-02-07T13:14:51.839Z,70.03
2019-02-07T13:17:49.162Z,72.47
2019-02-07T13:20:48.333Z,71.72
2019-02-07T13:23:29.580Z,73.47
2019-02-07T13:26:20.078Z,77.62
2019-02-07T13:28:56.279Z,75.90
2019-02-07T13:31:43.678Z,77.37
2019-02-07T13:34:45.060Z,79.13
2019-02-07T13:40:23.596Z,82.53
2019-02-07T13:43:14.195Z,85.63
2019-02-07T13:46:07.357Z,76.77
2019-02-07T13:48:48.969Z,88.37
2019-02-07T13:54:29.816Z,75.42
2019-02-07T13:57:15.552Z,84.87
2019-02-07T14:00:01.907Z,92.05
2019-02-07T14:02:46.721Z,95.67
2019-02-07T14:05:47.041Z,93.78
2019-02-07T14:08:38.187Z,102.00
2019-02-07T14:13:55.157Z,100.75
2019-02-07T14:16:54.644Z,101.33
2019-02-07T14:19:39.922Z,103.67
2019-02-07T14:22:33.170Z,107.83
2019-02-07T14:25:19.185Z,107.17
2019-02-07T14:28:11.567Z,114.97
2019-02-07T14:30:57.631Z,104.47
2019-02-07T14:33:39.542Z,100.50
2019-02-07T14:36:29.668Z,110.55
2019-02-07T14:39:07.837Z,111.05
2019-02-07T14:41:54.172Z,106.00
2019-02-07T14:44:42.527Z,108.67
2019-02-07T14:47:10.797Z,104.30
2019-02-07T14:49:39.210Z,107.00
2019-02-07T14:52:07.399Z,105.67
2019-02-07T14:54:35.569Z,103.97
2019-02-07T14:57:03.760Z,103.22
2019-02-07T14:59:31.916Z,103.47
2019-02-07T15:02:00.091Z,110.65
2019-02-07T15:04:28.289Z,106.07
2019-02-07T15:07:06.870Z,109.35
2019-02-07T15:09:35.063Z,99.30
2019-02-07T15:12:05.268Z,104.17
2019-02-07T15:14:35.494Z,100.17
2019-02-07T15:17:03.684Z,102.07
2019-02-07T15:19:31.852Z,106.40
2019-02-07T15:22:00.401Z,90.62
2019-02-07T15:24:28.741Z,95.45
2019-02-07T15:26:56.983Z,102.70
2019-02-07T15:29:25.259Z,99.07
2019-02-07T15:31:54.593Z,102.40
2019-02-07T15:34:23.767Z,103.90
2019-02-07T15:36:53.139Z,102.80
2019-02-07T15:39:21.319Z,101.00
2019-02-07T15:41:49.785Z,103.65
2019-02-07T15:44:17.968Z,107.25
2019-02-07T15:46:46.148Z,104.30
2019-02-07T15:49:14.385Z,100.97
2019-02-07T15:51:42.508Z,104.63
2019-02-07T15:54:10.649Z,99.80
2019-02-07T15:56:38.842Z,93.80
2019-02-07T15:59:20.579Z,110.95
2019-02-07T16:02:14.492Z,100.22
2019-02-07T16:04:44.759Z,96.70
2019-02-07T16:07:13.278Z,96.90
2019-02-07T16:09:42.149Z,94.17
2019-02-07T16:12:10.649Z,104.30
2019-02-07T16:14:38.853Z,109.40
2019-02-07T16:17:07.047Z,97.88
2019-02-07T16:19:35.610Z,104.15
2019-02-07T16:22:16.271Z,98.67
2019-02-07T16:24:44.847Z,109.57
2019-02-07T16:27:14.062Z,101.15
2019-02-07T16:29:42.248Z,95.92
2019-02-07T16:32:10.413Z,102.22
2019-02-07T16:34:38.570Z,99.90
2019-02-07T16:37:07.158Z,101.97
2019-02-07T16:39:35.339Z,97.00
2019-02-07T16:42:06.350Z,100.30
2019-02-07T16:44:31.605Z,112.28
2019-02-07T16:46:59.763Z,115.37
2019-02-07T16:49:28.205Z,107.97
2019-02-07T16:51:56.694Z,103.10
2019-02-07T16:54:26.834Z,105.80
2019-02-07T16:57:01.005Z,105.58
2019-02-07T16:59:29.228Z,101.72
2019-02-07T17:01:57.804Z,105.92
2019-02-07T17:04:27.008Z,109.30
2019-02-07T17:06:55.179Z,104.07
2019-02-07T17:09:34.287Z,103.50
2019-02-07T17:12:02.494Z,114.60
2019-02-07T17:14:31.776Z,104.15
2019-02-07T17:17:00.358Z,106.85
2019-02-07T17:19:28.543Z,108.03
2019-02-07T17:21:56.775Z,102.97
2019-02-07T17:24:24.992Z,110.95
2019-02-07T17:26:53.172Z,110.80
2019-02-07T17:29:21.334Z,106.20
2019-02-07T17:31:49.888Z,109.63
2019-02-07T17:34:18.088Z,108.83
2019-02-07T17:36:46.562Z,106.00
2019-02-07T17:39:15.137Z,102.95
2019-02-07T17:41:43.388Z,103.80
2019-02-07T17:44:11.600Z,99.40
2019-02-07T17:46:40.063Z,102.53
2019-02-07T17:49:08.651Z,110.75
2019-02-07T17:51:36.833Z,105.67
2019-02-07T17:54:05.277Z,102.33
2019-02-07T17:56:33.494Z,105.00
2019-02-07T17:59:01.660Z,105.40
2019-02-07T18:01:29.839Z,97.65
2019-02-07T18:03:58.027Z,97.73
2019-02-07T18:06:26.186Z,123.47
2019-02-07T18:08:54.853Z,105.90
2019-02-07T18:11:23.040Z,91.97
2019-02-07T18:13:52.307Z,93.20
2019-02-07T18:16:20.780Z,97.00
2019-02-07T18:18:49.275Z,97.50
2019-02-07T18:21:17.566Z,97.20
2019-02-07T18:23:46.158Z,99.47
2019-02-07T18:26:14.337Z,93.20
2019-02-07T18:28:42.620Z,99.35
2019-02-07T18:31:10.801Z,101.95
2019-02-07T18:33:41.031Z,97.08
2019-02-07T18:36:07.137Z,96.65
2019-02-07T18:38:35.307Z,97.67
2019-02-07T18:41:03.860Z,89.75
2019-02-07T18:43:32.419Z,105.47
2019-02-07T18:46:00.682Z,102.15
2019-02-07T18:48:28.839Z,113.22
2019-02-07T18:50:56.994Z,114.20
2019-02-07T18:53:25.177Z,107.75
2019-02-07T18:55:53.335Z,106.37
2019-02-07T18:58:21.542Z,142.47
2019-02-07T19:00:50.199Z,130.74
2019-02-07T19:03:18.528Z,146.53
2019-02-07T19:05:46.527Z,133.90
2019-02-07T19:08:14.726Z,123.67
2019-02-07T19:10:42.905Z,106.27
2019-02-07T19:13:11.487Z,105.75
2019-02-07T19:15:42.634Z,109.20
2019-02-07T19:18:11.488Z,100.95
2019-02-07T19:20:39.716Z,106.60
2019-02-07T19:23:08.347Z,97.12
2019-02-07T19:25:36.652Z,99.40
2019-02-07T19:28:06.347Z,97.50
2019-02-07T19:30:34.904Z,98.42
2019-02-07T19:33:03.216Z,114.60
2019-02-07T19:35:31.431Z,102.67
2019-02-07T19:37:59.788Z,122.78
2019-02-07T19:40:28.245Z,119.53
2019-02-07T19:42:56.430Z,95.17
2019-02-07T19:45:25.785Z,92.47
2019-02-07T19:47:59.828Z,97.62
2019-02-07T19:50:30.401Z,92.45
2019-02-07T19:52:58.527Z,94.70
2019-02-07T19:55:28.336Z,95.00
2019-02-07T19:58:07.681Z,98.67
2019-02-07T20:00:35.910Z,130.07
2019-02-07T20:03:04.120Z,122.73
2019-02-07T20:05:32.322Z,109.67
2019-02-07T20:08:00.763Z,95.77
2019-02-07T20:10:28.992Z,114.52
2019-02-07T20:12:58.184Z,107.07
2019-02-07T20:15:28.227Z,100.67
2019-02-07T20:17:56.443Z,99.67
2019-02-07T20:20:24.991Z,108.17
2019-02-07T20:22:53.225Z,117.95
2019-02-07T20:25:22.402Z,121.90
2019-02-07T20:27:51.615Z,115.50
2019-02-07T20:30:24.809Z,122.45
2019-02-07T20:32:53.281Z,112.25
2019-02-07T20:35:23.488Z,120.25
2019-02-07T20:37:51.659Z,125.15
2019-02-07T20:40:21.577Z,104.38
2019-02-07T20:42:50.444Z,111.72
2019-02-07T20:45:19.029Z,119.15
2019-02-07T20:47:47.228Z,117.45
2019-02-07T20:50:17.541Z,114.50
2019-02-07T20:52:46.026Z,112.83
2019-02-07T20:55:14.213Z,115.90
2019-02-07T20:57:42.659Z,110.92
2019-02-07T21:00:22.730Z,101.73
2019-02-07T21:02:50.903Z,128.00
2019-02-07T21:05:19.446Z,102.95
2019-02-07T21:07:48.050Z,134.45
2019-02-07T21:10:17.375Z,104.90
2019-02-07T21:12:45.934Z,99.17
2019-02-07T21:15:18.724Z,94.65
2019-02-07T21:17:43.736Z,99.85
2019-02-07T21:20:13.524Z,102.00
2019-02-07T21:22:42.329Z,95.75
2019-02-07T21:25:14.698Z,88.37
2019-02-07T21:27:42.891Z,99.83
2019-02-07T21:30:14.221Z,93.55
2019-02-07T21:32:42.400Z,93.05
2019-02-07T21:35:12.611Z,83.70
2019-02-07T21:38:00.446Z,92.87
2019-02-07T21:40:29.097Z,96.20
2019-02-07T21:42:58.229Z,96.35
2019-02-07T21:45:45.761Z,91.30
2019-02-07T21:48:14.241Z,101.02
2019-02-07T21:50:42.655Z,133.37
2019-02-07T21:53:10.798Z,97.97
2019-02-07T21:55:38.963Z,95.20
2019-02-07T21:58:07.735Z,105.75
2019-02-07T22:00:38.213Z,86.78
2019-02-07T22:03:17.611Z,94.67
2019-02-07T22:05:45.809Z,93.72
2019-02-07T22:08:14.818Z,105.75
2019-02-07T22:10:43.652Z,94.28
2019-02-07T22:13:11.966Z,95.45
2019-02-07T22:15:40.423Z,86.92
2019-02-07T22:18:09.331Z,93.15
2019-02-07T22:20:37.490Z,110.42
2019-02-07T22:23:05.766Z,112.47
2019-02-07T22:25:34.741Z,97.90
2019-02-07T22:28:03.031Z,123.90
2019-02-07T22:30:33.151Z,112.12
2019-02-07T22:33:03.922Z,111.60
2019-02-07T22:35:32.453Z,103.83
2019-02-07T22:38:01.126Z,89.50
2019-02-07T22:40:29.336Z,91.78
2019-02-07T22:42:57.516Z,92.22
2019-02-07T22:45:28.746Z,103.05
2019-02-07T22:47:56.846Z,96.40
2019-02-07T22:50:26.521Z,92.05
2019-02-07T22:52:57.124Z,91.45
2019-02-07T22:55:23.613Z,113.08
2019-02-07T22:57:52.146Z,85.87
2019-02-07T23:01:11.580Z,90.25
2019-02-07T23:03:43.429Z,92.60
2019-02-07T23:06:11.602Z,93.57
2019-02-07T23:08:42.829Z,94.03
2019-02-07T23:11:11.005Z,85.80
2019-02-07T23:13:39.441Z,82.97
2019-02-07T23:16:08.162Z,77.30
2019-02-07T23:18:37.651Z,75.12
2019-02-07T23:21:05.859Z,77.35
2019-02-07T23:23:36.378Z,70.40
2019-02-07T23:26:06.697Z,69.57
2019-02-07T23:28:34.930Z,79.87
2019-02-07T23:31:03.332Z,104.97
2019-02-07T23:33:32.539Z,98.37
2019-02-07T23:36:01.001Z,88.35
2019-02-07T23:38:29.201Z,87.92
2019-02-07T23:40:57.665Z,87.70
2019-02-07T23:43:26.230Z,94.62
2019-02-07T23:45:54.511Z,92.60
2019-02-07T23:48:22.716Z,150.10
2019-02-07T23:50:50.838Z,132.57
2019-02-07T23:53:19.583Z,190.80
2019-02-07T23:55:48.037Z,177.55
2019-02-07T23:58:16.239Z,130.40
